Pollock, ID (83547)

2:42 PM PDT on April 27, 2015 (GMT -0700)
RAWS | | Change Station
CLOSE
Current Station
Personal Weather Station
Location: Lucile, ID
Elevation: 1567 ft
Nearby Weather Stations

Elev 1567 ft 45.63 °N, 116.28 °W | Updated 32 minutes ago

Clear
Clear
72 °F
Feels Like 75 °F
N
4
Wind Variable Wind from NW
Gusts 8.0 mph

Today
High -- | Low -- °F
--% Chance of Precip.
Yesterday
High -- | Low -- °F
Precip. -- in
5:40 AM 7:46 PM
Waxing Gibbous, 68% visible
Pressure 30.32 in
Visibility 10.0 miles
Clouds Clear
Heat Index 75 °F
Dew Point 30 °F
Humidity 21%
Rainfall in
Snow Depth Not available.
UV 8 out of 12
Pollen 10.50 out of 12
Air Quality Not available.
Flu Activity Sporadic
METAR KGIC 272135Z AUTO 31003KT 10SM CLR 16/M04 A3032 RMK AO1 T01561041

More Conditions Fewer Conditions

Pressure 30.32 in
Visibility 10.0 miles
Clouds Clear
Heat Index 75 °F
Dew Point 30 °F
Humidity 21%
Rainfall in
Snow Depth Not available.
UV 8 out of 12
Pollen 10.50 out of 12
Air Quality Not available.
Flu Activity Sporadic
METAR KGIC 272135Z AUTO 31003KT 10SM CLR 16/M04 A3032 RMK AO1 T01561041

More Conditions Fewer Conditions

10-Day Weather Forecast

Almanac

Astronomy

Apr. 27, 2015 Rise Set
Actual Time
Civil Twilight
Nautical Twilight
Astronomical Twilight
Moon
Length of Visible Light
Length of Day
Tomorrow will be .
, % of the Moon is Illuminated

Today's Extremes

State Highs State Lows

Community

WunderPhotos

Upload Photos

1,817,435 photos uploaded!

WunderBlogs® & News

Nearby

Air Quality

  Air Quality AQ Index Pollutant
Not available.

Snow Depth

Station Depth Elevation

Earthquake Activity

City Distance Mag. Time & Date
Minimum magnitude displayed is 2.5.

Coastal Water Temperatures

Place Temperature

Stations

Nearby Weather Stations

Station Location Temp. Windchill Dew Point Humidity Wind Precip. Elev Updated Type